Time;durP1;ratioP1;P1;durP2;ratioP2;P2;SDS_P1;SDS_P2;PMS_P1;PMS_P2;Temp;Humidity;BMP_temperature;BMP_pressure;BME280_temperature;BME280_humidity;BME280_pressure;Samples;Min_cycle;Max_cycle;Signal;HPM_P1;HPM_P2
2023/05/03 00:02:18;;;;;;;;;;;;;;;6.30;100.00;-18197.75;5009198;28;19913;-78
2023/05/03 00:04:45;;;;;;;;;;;;;;;6.27;100.00;-18196.94;5007528;28;19921;-78
2023/05/03 00:07:10;;;;;;;;;;;;;;;6.12;100.00;-18192.66;5008461;28;19967;-78
2023/05/03 00:09:35;;;;;;;;;;;;;;;6.38;100.00;-18199.69;5008366;28;20492;-78
2023/05/03 00:12:01;;;;;;;;;;;;;;;6.24;100.00;-18195.97;5011308;28;19924;-78
2023/05/03 00:14:27;;;;;;;;;;;;;;;6.19;100.00;-18194.59;5008340;28;19932;-77
2023/05/03 00:16:52;;;;;;;;;;;;;;;5.91;100.00;-18187.13;5011232;28;19949;-78
2023/05/03 00:19:18;;;;;;;;;;;;;;;5.97;100.00;-18188.66;5010358;28;20308;-78
2023/05/03 00:21:44;;;;;;;;;;;;;;;5.86;100.00;-18185.88;5011119;28;20015;-78
2023/05/03 00:24:10;;;;;;;;;;;;;;;5.95;100.00;-18188.09;5009691;28;20545;-78
2023/05/03 00:26:35;;;;;;;;;;;;;;;6.09;100.00;-18192.09;5008359;28;20008;-77
2023/05/03 00:29:00;;;;;;;;;;;;;;;5.94;100.00;-18187.81;5009551;28;20375;-78
2023/05/03 00:31:25;;;;;;;;;;;;;;;6.00;100.00;-18189.47;5007764;28;20289;-77
2023/05/03 00:33:50;;;;;;;;;;;;;;;5.92;100.00;-18187.41;5007541;28;20335;-78
2023/05/03 00:36:16;;;;;;;;;;;;;;;5.77;100.00;-18183.25;5009011;28;20323;-78
2023/05/03 00:38:41;;;;;;;;;;;;;;;5.85;100.00;-18185.47;5008890;28;19936;-78
2023/05/03 00:41:08;;;;;;;;;;;;;;;5.69;100.00;-18181.19;5006670;28;19913;-78
2023/05/03 00:43:34;;;;;;;;;;;;;;;5.71;100.00;-18181.75;5008876;28;20368;-77
2023/05/03 00:46:00;;;;;;;;;;;;;;;5.81;100.00;-18184.38;5010946;28;19945;-77
2023/05/03 00:48:25;;;;;;;;;;;;;;;5.76;100.00;-18183.13;5008893;28;19920;-78
2023/05/03 00:50:53;;;;;;;;;;;;;;;5.80;100.00;-18184.09;5009859;28;20392;-77
2023/05/03 00:53:18;;;;;;;;;;;;;;;5.72;100.00;-18182.03;5009851;28;20383;-78
2023/05/03 00:55:44;;;;;;;;;;;;;;;5.73;100.00;-18182.16;5006963;28;19960;-77
2023/05/03 00:58:09;;;;;;;;;;;;;;;5.60;100.00;-18178.72;5008420;28;20379;-78
2023/05/03 01:00:34;;;;;;;;;;;;;;;5.61;100.00;-18179.13;5008137;28;19918;-78
2023/05/03 01:03:00;;;;;;;;;;;;;;;5.52;100.00;-18176.63;5008344;28;19914;-77
2023/05/03 01:05:27;;;;;;;;;;;;;;;5.43;100.00;-18174.16;5009116;28;19914;-78
2023/05/03 01:08:06;;;;;;;;;;;;;;;5.42;100.00;-18174.03;5007946;28;19925;-78
2023/05/03 01:10:45;;;;;;;;;;;;;;;5.51;100.00;-18176.38;5006657;28;19928;-78
2023/05/03 01:13:19;;;;;;;;;;;;;;;5.54;100.00;-18177.19;5004174;28;19917;-78
2023/05/03 01:15:47;;;;;;;;;;;;;;;5.52;100.00;-18176.50;5002753;28;19921;-78
2023/05/03 01:18:15;;;;;;;;;;;;;;;5.36;100.00;-18172.22;5006327;28;19913;-78
2023/05/03 01:20:42;;;;;;;;;;;;;;;5.22;100.00;-18168.38;5007964;28;19924;-78
2023/05/03 01:23:13;;;;;;;;;;;;;;;5.12;100.00;-18165.75;5023424;28;19914;-78
2023/05/03 01:25:39;;;;;;;;;;;;;;;5.09;100.00;-18165.06;5005848;28;19921;-77
2023/05/03 01:28:04;;;;;;;;;;;;;;;5.10;100.00;-18165.31;5007931;28;19913;-78
2023/05/03 01:30:31;;;;;;;;;;;;;;;5.01;100.00;-18162.84;5005751;28;19918;-78
2023/05/03 01:32:56;;;;;;;;;;;;;;;5.02;100.00;-18163.13;5007424;28;19917;-77
2023/05/03 01:35:34;;;;;;;;;;;;;;;4.91;100.00;-18160.09;5006218;28;19913;-77
2023/05/03 01:37:59;;;;;;;;;;;;;;;5.08;100.00;-18164.78;5007727;28;20829;-77
2023/05/03 01:40:26;;;;;;;;;;;;;;;5.25;100.00;-18169.19;5007528;28;19913;-77
2023/05/03 01:42:53;;;;;;;;;;;;;;;5.21;100.00;-18168.22;5009349;28;19921;-77
2023/05/03 01:45:19;;;;;;;;;;;;;;;5.22;100.00;-18168.38;5007377;28;19917;-77
2023/05/03 01:47:44;;;;;;;;;;;;;;;5.15;100.00;-18166.56;5008437;28;20391;-78
2023/05/03 01:50:09;;;;;;;;;;;;;;;5.15;100.00;-18166.56;5002169;28;19928;-77
2023/05/03 01:52:34;;;;;;;;;;;;;;;5.15;100.00;-18166.56;5006540;28;19923;-77
2023/05/03 01:55:00;;;;;;;;;;;;;;;4.89;100.00;-18159.66;5007818;28;19925;-78
2023/05/03 01:57:25;;;;;;;;;;;;;;;4.81;100.00;-18157.47;5006359;28;20369;-78
2023/05/03 01:59:50;;;;;;;;;;;;;;;4.74;100.00;-18155.53;5006840;28;20297;-77
2023/05/03 02:02:16;;;;;;;;;;;;;;;4.93;100.00;-18160.63;5007940;28;19996;-77
2023/05/03 02:04:41;;;;;;;;;;;;;;;4.90;100.00;-18159.81;5006272;28;20365;-77
2023/05/03 02:07:06;;;;;;;;;;;;;;;4.89;100.00;-18159.66;5007493;28;19913;-77
2023/05/03 02:09:32;;;;;;;;;;;;;;;4.88;100.00;-18159.25;5004303;28;19921;-78
2023/05/03 02:11:57;;;;;;;;;;;;;;;4.93;100.00;-18160.63;5007628;28;19917;-77
2023/05/03 02:14:22;;;;;;;;;;;;;;;5.03;100.00;-18163.25;5007818;28;19932;-77
2023/05/03 02:16:48;;;;;;;;;;;;;;;4.85;100.00;-18158.56;5007980;28;19925;-78
2023/05/03 02:19:13;;;;;;;;;;;;;;;4.92;100.00;-18160.34;5009970;28;20426;-77
2023/05/03 02:21:39;;;;;;;;;;;;;;;4.81;100.00;-18157.47;4999445;28;20345;-77
2023/05/03 02:24:04;;;;;;;;;;;;;;;4.83;100.00;-18157.88;5005938;28;20361;-77
2023/05/03 02:26:29;;;;;;;;;;;;;;;4.78;100.00;-18156.50;5000255;28;19971;-77
2023/05/03 02:28:56;;;;;;;;;;;;;;;4.71;100.00;-18154.84;5004882;28;19914;-78
2023/05/03 02:31:22;;;;;;;;;;;;;;;4.70;100.00;-18154.56;5005468;28;20381;-77
2023/05/03 02:33:47;;;;;;;;;;;;;;;4.64;100.00;-18152.91;5003961;28;19928;-77
2023/05/03 02:36:12;;;;;;;;;;;;;;;4.53;100.00;-18150.00;5004439;28;19924;-77
2023/05/03 02:38:38;;;;;;;;;;;;;;;4.42;100.00;-18146.97;5003496;28;19925;-78
2023/05/03 02:41:03;;;;;;;;;;;;;;;4.52;100.00;-18149.59;5004574;28;19932;-77
2023/05/03 02:43:28;;;;;;;;;;;;;;;4.31;100.00;-18143.94;5015909;28;20329;-78
2023/05/03 02:45:53;;;;;;;;;;;;;;;4.33;100.00;-18144.47;5005217;28;19995;-77
2023/05/03 02:48:19;;;;;;;;;;;;;;;4.32;100.00;-18144.06;5001969;28;19967;-78
2023/05/03 02:50:44;;;;;;;;;;;;;;;4.21;100.00;-18141.31;5003517;28;19960;-77
2023/05/03 02:53:10;;;;;;;;;;;;;;;4.17;100.00;-18140.19;5001656;28;19918;-78
2023/05/03 02:55:35;;;;;;;;;;;;;;;4.07;100.00;-18137.44;5003470;28;20285;-77
2023/05/03 02:58:01;;;;;;;;;;;;;;;4.06;100.00;-18137.31;5000610;28;20603;-77
2023/05/03 03:00:26;;;;;;;;;;;;;;;4.05;100.00;-18136.88;5002733;28;19914;-78
2023/05/03 03:02:51;;;;;;;;;;;;;;;3.99;100.00;-18135.22;5005286;28;19918;-76
2023/05/03 03:05:16;;;;;;;;;;;;;;;3.98;100.00;-18135.09;5007968;28;20627;-77
2023/05/03 03:07:42;;;;;;;;;;;;;;;3.95;100.00;-18134.25;5008194;28;20000;-77
2023/05/03 03:10:07;;;;;;;;;;;;;;;3.97;100.00;-18134.81;5007789;28;19920;-77
2023/05/03 03:12:36;;;;;;;;;;;;;;;3.93;100.00;-18133.56;5006795;28;19921;-77
2023/05/03 03:15:02;;;;;;;;;;;;;;;3.88;100.00;-18132.19;5011093;28;19946;-77
2023/05/03 03:17:27;;;;;;;;;;;;;;;3.76;100.00;-18129.00;5005851;28;19956;-77
2023/05/03 03:19:53;;;;;;;;;;;;;;;3.82;100.00;-18130.81;5006240;28;19929;-77
2023/05/03 03:22:18;;;;;;;;;;;;;;;3.66;100.00;-18126.25;5007391;28;20129;-77
2023/05/03 03:24:44;;;;;;;;;;;;;;;3.78;100.00;-18129.69;5007797;28;20011;-77
2023/05/03 03:27:09;;;;;;;;;;;;;;;3.81;100.00;-18130.53;5021603;28;20288;-77
2023/05/03 03:29:34;;;;;;;;;;;;;;;3.69;100.00;-18127.06;5005282;28;19921;-77
2023/05/03 03:31:59;;;;;;;;;;;;;;;3.60;100.00;-18124.72;5005421;28;19917;-77
2023/05/03 03:34:25;;;;;;;;;;;;;;;3.71;100.00;-18127.78;5007036;28;19917;-77
2023/05/03 03:36:50;;;;;;;;;;;;;;;3.76;100.00;-18129.16;5006002;28;19921;-77
2023/05/03 03:39:15;;;;;;;;;;;;;;;3.68;100.00;-18126.94;5002132;28;19914;-77
2023/05/03 03:41:41;;;;;;;;;;;;;;;3.54;100.00;-18123.22;5007063;28;19923;-77
2023/05/03 03:44:06;;;;;;;;;;;;;;;3.48;100.00;-18121.41;5009030;28;19978;-77
2023/05/03 03:46:31;;;;;;;;;;;;;;;3.47;100.00;-18121.13;5005969;28;19913;-77
2023/05/03 03:48:56;;;;;;;;;;;;;;;3.50;100.00;-18121.97;5008174;28;19918;-77
2023/05/03 03:51:22;;;;;;;;;;;;;;;3.49;100.00;-18121.81;5007410;28;20000;-77
2023/05/03 03:53:47;;;;;;;;;;;;;;;3.52;100.00;-18122.66;5006802;28;20405;-78
2023/05/03 03:56:12;;;;;;;;;;;;;;;3.52;100.00;-18122.50;5006733;28;20122;-77
2023/05/03 03:58:37;;;;;;;;;;;;;;;3.59;100.00;-18124.59;5006275;28;19917;-78
2023/05/03 04:01:03;;;;;;;;;;;;;;;3.63;100.00;-18125.56;5008561;28;19921;-77
2023/05/03 04:03:28;;;;;;;;;;;;;;;3.62;100.00;-18125.28;5006144;28;19940;-77
2023/05/03 04:05:53;;;;;;;;;;;;;;;3.39;100.00;-18119.19;5004975;28;19921;-77
2023/05/03 04:08:18;;;;;;;;;;;;;;;3.43;100.00;-18120.03;5002851;28;20000;-77
2023/05/03 04:10:44;;;;;;;;;;;;;;;3.34;100.00;-18117.81;5003749;28;19917;-78
2023/05/03 04:13:10;;;;;;;;;;;;;;;3.66;100.00;-18126.38;5005464;28;19921;-77
2023/05/03 04:15:35;;;;;;;;;;;;;;;3.62;100.00;-18125.28;5004158;28;20360;-77
2023/05/03 04:18:00;;;;;;;;;;;;;;;3.62;100.00;-18125.28;5006051;28;19931;-77
2023/05/03 04:20:25;;;;;;;;;;;;;;;3.44;100.00;-18120.31;5004347;28;19917;-78
2023/05/03 04:22:51;;;;;;;;;;;;;;;3.68;100.00;-18126.94;5007682;28;19936;-78
2023/05/03 04:25:17;;;;;;;;;;;;;;;3.48;100.00;-18121.56;5011591;28;19917;-78
2023/05/03 04:27:42;;;;;;;;;;;;;;;3.48;100.00;-18121.41;5013677;28;19913;-78
2023/05/03 04:30:08;;;;;;;;;;;;;;;3.60;100.00;-18124.88;5011053;28;19940;-77
2023/05/03 04:32:36;;;;;;;;;;;;;;;3.64;100.00;-18125.69;5013335;28;19978;-78
2023/05/03 04:35:03;;;;;;;;;;;;;;;3.55;100.00;-18123.47;5010965;28;20034;-78
2023/05/03 04:37:28;;;;;;;;;;;;;;;3.68;100.00;-18126.94;5009970;28;19936;-79
2023/05/03 04:39:53;;;;;;;;;;;;;;;3.76;100.00;-18129.16;5006718;28;20572;-78
2023/05/03 04:42:19;;;;;;;;;;;;;;;3.82;100.00;-18130.66;5013324;28;19917;-80
2023/05/03 04:44:44;;;;;;;;;;;;;;;3.92;100.00;-18133.28;5008915;28;19917;-79
2023/05/03 04:47:10;;;;;;;;;;;;;;;3.78;100.00;-18129.69;5006807;28;19913;-79
2023/05/03 04:49:36;;;;;;;;;;;;;;;3.81;100.00;-18130.53;5011562;28;19917;-79
2023/05/03 04:52:01;;;;;;;;;;;;;;;3.79;100.00;-18129.97;5014472;28;19944;-80
2023/05/03 04:54:26;;;;;;;;;;;;;;;3.86;100.00;-18131.78;5012987;28;19963;-80
2023/05/03 04:56:52;;;;;;;;;;;;;;;3.92;100.00;-18133.28;5011577;28;20422;-80
2023/05/03 04:59:18;;;;;;;;;;;;;;;3.99;100.00;-18135.22;5012725;28;19928;-81
2023/05/03 05:01:43;;;;;;;;;;;;;;;4.08;100.00;-18137.72;5011485;28;20316;-80
2023/05/03 05:04:08;;;;;;;;;;;;;;;4.15;100.00;-18139.66;5012413;28;19917;-80
2023/05/03 05:06:33;;;;;;;;;;;;;;;4.15;100.00;-18139.50;5010046;28;19947;-80
2023/05/03 05:08:58;;;;;;;;;;;;;;;4.21;100.00;-18141.31;5010341;28;19917;-80
2023/05/03 05:11:24;;;;;;;;;;;;;;;4.23;100.00;-18141.84;5013857;28;19947;-79
2023/05/03 05:13:49;;;;;;;;;;;;;;;4.43;100.00;-18147.09;5016147;28;19917;-80
2023/05/03 05:16:15;;;;;;;;;;;;;;;4.52;100.00;-18149.59;5012881;28;19925;-79
2023/05/03 05:18:40;;;;;;;;;;;;;;;4.56;100.00;-18150.69;5011444;28;19917;-79
2023/05/03 05:21:05;;;;;;;;;;;;;;;4.69;100.00;-18154.16;5011105;28;19971;-79
2023/05/03 05:23:30;;;;;;;;;;;;;;;4.78;100.00;-18156.50;5013186;28;20121;-80
2023/05/03 05:25:59;;;;;;;;;;;;;;;4.86;100.00;-18158.84;5015959;28;19932;-80
2023/05/03 05:28:25;;;;;;;;;;;;;;;4.96;100.00;-18161.59;5013645;28;19920;-80
2023/05/03 05:30:50;;;;;;;;;;;;;;;5.02;100.00;-18163.13;5013365;28;19935;-79
2023/05/03 05:33:15;;;;;;;;;;;;;;;5.08;100.00;-18164.63;5016148;28;19917;-80
2023/05/03 05:35:40;;;;;;;;;;;;;;;5.30;100.00;-18170.56;5012152;28;19944;-80
2023/05/03 05:38:06;;;;;;;;;;;;;;;5.34;100.00;-18171.81;5004242;28;19949;-80
2023/05/03 05:40:31;;;;;;;;;;;;;;;5.56;100.00;-18177.75;5006703;28;19948;-80
2023/05/03 05:42:56;;;;;;;;;;;;;;;5.60;100.00;-18178.84;5005514;28;19921;-79
2023/05/03 05:45:22;;;;;;;;;;;;;;;5.62;100.00;-18179.41;5007482;28;19960;-79
2023/05/03 05:47:47;;;;;;;;;;;;;;;5.75;100.00;-18182.72;5002162;28;19917;-79
2023/05/03 05:50:12;;;;;;;;;;;;;;;5.85;100.00;-18185.63;5003103;28;20652;-79
2023/05/03 05:52:37;;;;;;;;;;;;;;;5.89;100.00;-18186.56;5005365;28;19918;-81
2023/05/03 05:55:03;;;;;;;;;;;;;;;6.06;100.00;-18191.13;5009365;28;19917;-79
2023/05/03 05:57:28;;;;;;;;;;;;;;;6.07;100.00;-18191.41;5005805;28;20020;-82
2023/05/03 05:59:53;;;;;;;;;;;;;;;6.22;100.00;-18195.53;5007944;28;19964;-81
2023/05/03 06:02:22;;;;;;;;;;;;;;;6.31;100.00;-18198.03;5005306;28;19913;-80
2023/05/03 06:04:47;;;;;;;;;;;;;;;6.45;100.00;-18201.63;5005184;28;19920;-80
2023/05/03 06:07:13;;;;;;;;;;;;;;;6.45;100.00;-18201.63;5002985;28;19913;-80
2023/05/03 06:09:38;;;;;;;;;;;;;;;6.55;100.00;-18204.38;5005138;28;21453;-80
2023/05/03 06:12:04;;;;;;;;;;;;;;;6.67;100.00;-18207.69;5006842;28;19917;-80
2023/05/03 06:14:29;;;;;;;;;;;;;;;6.74;100.00;-18209.47;5004647;28;19914;-80
2023/05/03 06:16:54;;;;;;;;;;;;;;;6.83;100.00;-18211.94;5006840;28;19921;-80
2023/05/03 06:19:20;;;;;;;;;;;;;;;6.93;100.00;-18214.72;5006339;28;19924;-79
2023/05/03 06:21:45;;;;;;;;;;;;;;;7.10;100.00;-18219.25;5006196;28;19928;-80
2023/05/03 06:24:10;;;;;;;;;;;;;;;7.11;100.00;-18219.53;5020673;28;19921;-80
2023/05/03 06:26:36;;;;;;;;;;;;;;;7.40;100.00;-18227.38;5006715;28;19948;-80
2023/05/03 06:29:01;;;;;;;;;;;;;;;7.40;100.00;-18227.38;5008971;28;19929;-81
2023/05/03 06:31:27;;;;;;;;;;;;;;;7.44;100.00;-18228.34;5021381;28;19920;-80
2023/05/03 06:33:52;;;;;;;;;;;;;;;7.59;100.00;-18232.34;5011665;28;19917;-79
2023/05/03 06:36:17;;;;;;;;;;;;;;;7.72;100.00;-18235.78;5006283;28;19920;-81
2023/05/03 06:38:43;;;;;;;;;;;;;;;7.81;100.00;-18238.41;5005936;28;19928;-79
2023/05/03 06:41:08;;;;;;;;;;;;;;;7.99;100.00;-18243.09;5011145;28;19913;-80
2023/05/03 06:43:33;;;;;;;;;;;;;;;8.33;100.00;-18252.44;5010698;28;20289;-80
2023/05/03 06:45:58;;;;;;;;;;;;;;;8.17;100.00;-18248.03;5009755;28;19946;-80
2023/05/03 06:48:24;;;;;;;;;;;;;;;8.32;100.00;-18252.19;5014553;28;19914;-78
2023/05/03 06:50:49;;;;;;;;;;;;;;;8.37;100.00;-18253.41;5025814;28;19925;-80
2023/05/03 06:53:15;;;;;;;;;;;;;;;8.40;100.00;-18254.09;5015061;28;19975;-80
2023/05/03 06:55:42;;;;;;;;;;;;;;;8.51;100.00;-18257.13;5012086;28;19914;-79
2023/05/03 06:58:10;;;;;;;;;;;;;;;8.58;100.00;-18259.06;5015604;28;19945;-80
2023/05/03 07:00:37;;;;;;;;;;;;;;;8.59;100.00;-18259.34;5012992;28;19917;-80
2023/05/03 07:03:03;;;;;;;;;;;;;;;8.75;100.00;-18263.59;5015613;28;19921;-80
2023/05/03 07:05:28;;;;;;;;;;;;;;;8.80;100.00;-18265.13;5013662;28;19913;-79
2023/05/03 07:07:54;;;;;;;;;;;;;;;8.96;100.00;-18269.25;5014512;28;19921;-80
2023/05/03 07:10:19;;;;;;;;;;;;;;;9.29;100.00;-18278.06;5015993;28;20002;-80
2023/05/03 07:12:44;;;;;;;;;;;;;;;9.29;100.00;-18278.06;5012285;28;19933;-81
2023/05/03 07:15:10;;;;;;;;;;;;;;;9.17;100.00;-18274.88;5009371;28;19940;-80
2023/05/03 07:17:35;;;;;;;;;;;;;;;9.35;100.00;-18279.69;5012032;28;20009;-78
2023/05/03 07:20:00;;;;;;;;;;;;;;;9.56;100.00;-18285.47;5014141;28;20016;-79
2023/05/03 07:22:26;;;;;;;;;;;;;;;9.35;100.00;-18279.69;5013482;28;20622;-80
2023/05/03 07:24:53;;;;;;;;;;;;;;;9.34;100.00;-18279.44;5014647;28;19949;-80
2023/05/03 07:27:18;;;;;;;;;;;;;;;9.53;100.00;-18284.50;5013524;28;19913;-79
2023/05/03 07:29:44;;;;;;;;;;;;;;;9.54;100.00;-18284.78;5012704;28;20024;-80
2023/05/03 07:32:09;;;;;;;;;;;;;;;9.56;100.00;-18285.34;5015659;28;19972;-81
2023/05/03 07:34:34;;;;;;;;;;;;;;;9.69;100.00;-18288.91;5012547;28;19914;-78
2023/05/03 07:37:00;;;;;;;;;;;;;;;9.77;100.00;-18290.97;5014297;28;20455;-80
2023/05/03 07:39:25;;;;;;;;;;;;;;;9.81;100.00;-18292.06;5011503;28;19921;-79
2023/05/03 07:41:50;;;;;;;;;;;;;;;9.83;100.00;-18292.75;5012834;28;19936;-81
2023/05/03 07:44:15;;;;;;;;;;;;;;;9.83;100.00;-18292.75;5012761;28;20444;-80
2023/05/03 07:46:40;;;;;;;;;;;;;;;9.89;100.00;-18294.28;5012273;28;19914;-80
2023/05/03 07:49:06;;;;;;;;;;;;;;;10.04;100.00;-18298.41;5013247;28;19929;-80
2023/05/03 07:51:38;;;;;;;;;;;;;;;9.98;100.00;-18296.63;5013424;28;19921;-80
2023/05/03 07:54:03;;;;;;;;;;;;;;;10.19;100.00;-18302.25;5014624;28;20596;-78
2023/05/03 07:56:28;;;;;;;;;;;;;;;10.16;100.00;-18301.56;5013765;28;19937;-80
2023/05/03 07:58:54;;;;;;;;;;;;;;;10.30;100.00;-18305.28;5012575;28;19925;-80
2023/05/03 08:01:20;;;;;;;;;;;;;;;10.37;100.00;-18307.19;5014783;28;19917;-80
2023/05/03 08:03:45;;;;;;;;;;;;;;;10.41;100.00;-18308.31;5012670;28;19921;-80
2023/05/03 08:06:11;;;;;;;;;;;;;;;10.55;100.00;-18312.16;5009516;28;19920;-80
2023/05/03 08:08:37;;;;;;;;;;;;;;;10.51;100.00;-18310.91;5011204;28;19913;-80
2023/05/03 08:11:02;;;;;;;;;;;;;;;10.62;100.00;-18313.94;5014051;28;19921;-80
2023/05/03 08:13:27;;;;;;;;;;;;;;;10.66;100.00;-18314.91;5013486;28;19921;-79
2023/05/03 08:15:52;;;;;;;;;;;;;;;10.66;100.00;-18314.91;5013201;28;19925;-81
2023/05/03 08:18:18;;;;;;;;;;;;;;;10.73;100.00;-18316.81;5029072;28;19914;-81
2023/05/03 08:20:43;;;;;;;;;;;;;;;10.78;100.00;-18318.19;5010077;28;19925;-82
2023/05/03 08:23:10;;;;;;;;;;;;;;;10.81;100.00;-18319.00;5013420;28;19985;-81
2023/05/03 08:25:36;;;;;;;;;;;;;;;10.78;100.00;-18318.31;5002765;28;19920;-80
2023/05/03 08:28:01;;;;;;;;;;;;;;;10.87;100.00;-18320.53;5013190;28;19972;-80
2023/05/03 08:30:26;;;;;;;;;;;;;;;10.99;100.00;-18323.97;5004808;28;20343;-81
2023/05/03 08:32:51;;;;;;;;;;;;;;;11.12;100.00;-18327.25;5013863;28;19917;-81
2023/05/03 08:35:17;;;;;;;;;;;;;;;11.21;100.00;-18329.72;5016448;28;19960;-80
2023/05/03 08:37:43;;;;;;;;;;;;;;;11.38;100.00;-18334.41;5010258;28;20000;-81
2023/05/03 08:40:10;;;;;;;;;;;;;;;11.33;100.00;-18333.03;5012890;28;19940;-80
2023/05/03 08:42:40;;;;;;;;;;;;;;;11.37;100.00;-18334.00;5012470;28;20004;-81
2023/05/03 08:45:07;;;;;;;;;;;;;;;11.48;100.00;-18337.16;5013603;28;20008;-80
2023/05/03 08:47:36;;;;;;;;;;;;;;;11.67;100.00;-18342.09;5012292;28;19914;-80
2023/05/03 08:50:02;;;;;;;;;;;;;;;11.53;100.00;-18338.38;5014607;28;19947;-80
2023/05/03 08:52:28;;;;;;;;;;;;;;;11.56;100.00;-18339.19;5012820;28;20014;-79
2023/05/03 08:54:53;;;;;;;;;;;;;;;11.70;100.00;-18342.91;5016606;28;19921;-80
2023/05/03 08:57:20;;;;;;;;;;;;;;;11.79;100.00;-18345.25;5021500;28;19924;-81
2023/05/03 08:59:48;;;;;;;;;;;;;;;11.90;100.00;-18348.25;5009482;28;20943;-80
2023/05/03 09:02:14;;;;;;;;;;;;;;;11.77;94.86;-18344.69;5031005;28;19921;-80
2023/05/03 09:04:40;;;;;;;;;;;;;;;11.57;95.17;-18339.47;5012970;28;20387;-79
2023/05/03 09:07:08;;;;;;;;;;;;;;;11.58;100.00;-18339.63;5011870;28;19921;-80
2023/05/03 09:09:34;;;;;;;;;;;;;;;11.74;100.00;-18344.16;5018098;28;19976;-80
2023/05/03 09:12:00;;;;;;;;;;;;;;;11.83;100.00;-18346.47;5010059;28;19922;-81
2023/05/03 09:14:25;;;;;;;;;;;;;;;11.87;100.00;-18347.56;5013058;28;19914;-79
2023/05/03 09:16:50;;;;;;;;;;;;;;;11.94;100.00;-18349.50;5013409;28;19913;-81
2023/05/03 09:19:16;;;;;;;;;;;;;;;11.98;100.00;-18350.47;5009930;28;20384;-80
2023/05/03 09:21:42;;;;;;;;;;;;;;;12.16;100.00;-18355.41;5011894;28;20367;-81
2023/05/03 09:24:14;;;;;;;;;;;;;;;12.22;100.00;-18356.78;5004181;28;19967;-81
2023/05/03 09:26:41;;;;;;;;;;;;;;;12.27;100.00;-18358.28;5009331;28;20591;-81
2023/05/03 09:29:06;;;;;;;;;;;;;;;12.33;100.00;-18359.78;5012022;28;20385;-80
2023/05/03 09:31:32;;;;;;;;;;;;;;;12.15;100.00;-18355.00;5011104;28;19913;-81
2023/05/03 09:33:58;;;;;;;;;;;;;;;12.36;100.00;-18360.75;5007827;28;19917;-81
2023/05/03 09:36:24;;;;;;;;;;;;;;;12.48;97.14;-18363.75;5010236;28;19917;-79
2023/05/03 09:38:50;;;;;;;;;;;;;;;12.53;100.00;-18365.28;5010638;28;19940;-80
2023/05/03 09:41:15;;;;;;;;;;;;;;;12.50;100.00;-18364.44;5012343;28;19923;-81
2023/05/03 09:43:48;;;;;;;;;;;;;;;12.82;100.00;-18372.97;5016303;28;19988;-81
2023/05/03 09:46:13;;;;;;;;;;;;;;;12.89;93.69;-18374.88;5010592;28;19989;-80
2023/05/03 09:48:39;;;;;;;;;;;;;;;12.81;91.66;-18372.81;5010307;28;19956;-81
2023/05/03 09:51:05;;;;;;;;;;;;;;;12.79;100.00;-18372.13;5009916;28;19936;-81
2023/05/03 09:53:31;;;;;;;;;;;;;;;12.92;98.21;-18375.56;5010720;28;19984;-81
2023/05/03 09:55:58;;;;;;;;;;;;;;;12.77;92.68;-18371.72;5008113;28;19952;-81
2023/05/03 09:58:24;;;;;;;;;;;;;;;12.63;89.23;-18367.88;5007444;28;19928;-81
2023/05/03 10:00:50;;;;;;;;;;;;;;;12.81;96.12;-18372.81;5012517;28;19920;-80
2023/05/03 10:03:26;;;;;;;;;;;;;;;13.07;93.72;-18379.81;5012235;28;19921;-79
2023/05/03 10:05:52;;;;;;;;;;;;;;;12.94;91.31;-18376.09;5008582;28;19913;-80
2023/05/03 10:08:31;;;;;;;;;;;;;;;13.22;93.03;-18383.78;5009273;28;19921;-80
2023/05/03 10:10:57;;;;;;;;;;;;;;;13.25;93.71;-18384.47;5009372;28;19937;-81
2023/05/03 10:13:23;;;;;;;;;;;;;;;13.25;83.94;-18384.63;5008706;28;19964;-80
2023/05/03 10:15:59;;;;;;;;;;;;;;;12.92;79.44;-18375.56;5005802;28;19917;-80
2023/05/03 10:18:28;;;;;;;;;;;;;;;13.05;94.76;-18379.13;5009221;28;19968;-79
2023/05/03 10:20:56;;;;;;;;;;;;;;;13.20;94.42;-18383.22;5010420;28;19921;-81
2023/05/03 10:23:21;;;;;;;;;;;;;;;13.23;93.10;-18384.06;5009154;28;19917;-81
2023/05/03 10:26:05;;;;;;;;;;;;;;;13.37;94.09;-18387.75;5008533;28;19925;-79
2023/05/03 10:28:32;;;;;;;;;;;;;;;13.38;91.26;-18387.91;5007777;28;19914;-80
2023/05/03 10:30:57;;;;;;;;;;;;;;;13.51;92.74;-18391.59;5011434;28;19918;-81
2023/05/03 10:33:29;;;;;;;;;;;;;;;13.79;98.27;-18398.88;5008065;28;19921;-81
2023/05/03 10:35:55;;;;;;;;;;;;;;;13.87;94.63;-18401.06;5010965;28;21694;-81
2023/05/03 10:38:24;;;;;;;;;;;;;;;14.13;94.66;-18408.03;5008112;28;19941;-80
2023/05/03 10:40:49;;;;;;;;;;;;;;;14.04;86.74;-18405.72;5009444;28;20019;-81
2023/05/03 10:43:30;;;;;;;;;;;;;;;14.13;86.48;-18408.19;5009697;28;19956;-80
2023/05/03 10:45:56;;;;;;;;;;;;;;;14.19;86.93;-18409.81;5007888;28;19920;-81
2023/05/03 10:48:21;;;;;;;;;;;;;;;14.56;78.85;-18419.69;5011132;28;19913;-80
2023/05/03 10:50:47;;;;;;;;;;;;;;;14.49;82.68;-18417.75;5028937;22;20431;-82
2023/05/03 10:53:32;;;;;;;;;;;;;;;14.53;80.49;-18418.88;5004037;28;20415;-82
2023/05/03 10:56:02;;;;;;;;;;;;;;;14.42;82.77;-18415.84;5000050;28;19918;-84
2023/05/03 10:58:28;;;;;;;;;;;;;;;14.43;84.80;-18416.13;5002541;28;19913;-82
2023/05/03 11:00:54;;;;;;;;;;;;;;;14.47;81.91;-18417.22;5006013;28;19917;-82
2023/05/03 11:03:38;;;;;;;;;;;;;;;14.63;90.09;-18421.59;5006959;28;19913;-82
2023/05/03 11:06:04;;;;;;;;;;;;;;;14.43;87.13;-18416.13;4984658;28;19921;-82
2023/05/03 11:08:36;;;;;;;;;;;;;;;14.64;85.72;-18421.88;5002312;28;20431;-82
2023/05/03 11:11:01;;;;;;;;;;;;;;;14.31;76.94;-18412.97;5001291;28;19987;-82
2023/05/03 11:13:26;;;;;;;;;;;;;;;14.34;67.61;-18413.78;5003194;28;20432;-82
2023/05/03 11:15:53;;;;;;;;;;;;;;;14.08;68.46;-18406.81;5003489;28;20392;-82
2023/05/03 11:18:18;;;;;;;;;;;;;;;14.13;71.98;-18408.03;5002736;28;20016;-82
2023/05/03 11:20:43;;;;;;;;;;;;;;;14.70;75.74;-18423.38;5004439;28;19989;-82
2023/05/03 11:23:10;;;;;;;;;;;;;;;14.75;70.00;-18424.59;5000134;28;20288;-82
2023/05/03 11:25:36;;;;;;;;;;;;;;;14.77;68.95;-18425.28;5002252;28;20419;-82
2023/05/03 11:28:03;;;;;;;;;;;;;;;15.08;73.95;-18433.63;5009195;28;19945;-82
2023/05/03 11:30:28;;;;;;;;;;;;;;;14.72;64.28;-18423.78;5006665;28;19921;-82
2023/05/03 11:32:54;;;;;;;;;;;;;;;14.60;65.43;-18420.63;5011610;28;19917;-82
2023/05/03 11:35:22;;;;;;;;;;;;;;;15.04;70.91;-18432.53;5010769;28;19929;-82
2023/05/03 11:37:48;;;;;;;;;;;;;;;15.33;64.48;-18440.34;5022278;28;19913;-82
2023/05/03 11:40:17;;;;;;;;;;;;;;;15.50;66.85;-18444.84;5008999;28;19940;-82
2023/05/03 11:42:55;;;;;;;;;;;;;;;15.34;80.43;-18440.47;5009224;28;20366;-82
2023/05/03 11:45:21;;;;;;;;;;;;;;;15.57;71.02;-18446.63;5008234;28;20311;-82
2023/05/03 11:47:47;;;;;;;;;;;;;;;15.55;65.45;-18446.09;5007443;28;20339;-82
2023/05/03 11:50:12;;;;;;;;;;;;;;;15.31;63.75;-18439.66;5002736;28;19913;-83
2023/05/03 11:52:37;;;;;;;;;;;;;;;15.12;66.29;-18434.72;5006035;28;20051;-82
2023/05/03 11:55:03;;;;;;;;;;;;;;;15.62;76.91;-18447.88;4999743;28;20453;-83
2023/05/03 11:57:30;;;;;;;;;;;;;;;15.64;66.59;-18448.41;5000929;28;19922;-82
2023/05/03 12:00:08;;;;;;;;;;;;;;;15.93;63.98;-18456.34;5001424;28;19922;-81
2023/05/03 12:02:34;;;;;;;;;;;;;;;16.11;66.09;-18461.00;5004850;28;19914;-83
2023/05/03 12:05:00;;;;;;;;;;;;;;;16.16;73.51;-18462.50;5006437;28;19975;-82
2023/05/03 12:07:26;;;;;;;;;;;;;;;15.98;69.95;-18457.56;5007575;28;19925;-81
2023/05/03 12:09:51;;;;;;;;;;;;;;;16.09;65.42;-18460.44;5006940;28;20009;-81
2023/05/03 12:12:20;;;;;;;;;;;;;;;16.18;59.98;-18462.91;5003157;28;19925;-82
2023/05/03 12:14:58;;;;;;;;;;;;;;;16.51;64.51;-18471.66;5004564;28;19984;-83
2023/05/03 12:17:34;;;;;;;;;;;;;;;16.21;59.76;-18463.72;5002669;28;20347;-82
2023/05/03 12:20:15;;;;;;;;;;;;;;;16.02;64.04;-18458.81;5007200;28;19917;-83
2023/05/03 12:22:41;;;;;;;;;;;;;;;16.34;68.52;-18467.16;5004651;28;20265;-83
2023/05/03 12:25:07;;;;;;;;;;;;;;;16.86;66.57;-18481.22;5004266;28;19960;-82
2023/05/03 12:27:32;;;;;;;;;;;;;;;16.51;69.93;-18471.78;5008316;28;19917;-82
2023/05/03 12:29:57;;;;;;;;;;;;;;;16.79;60.59;-18479.16;5007017;28;20590;-83
2023/05/03 12:32:23;;;;;;;;;;;;;;;16.85;59.80;-18480.94;5006246;28;20337;-82